sensor_id;sensor_type;location;lat;lon;timestamp;P1;durP1;ratioP1;P2;durP2;ratioP2
14681;SDS011;7429;52.498;13.480;2022-12-07T00:02:22;24.83;;;15.73;;
14681;SDS011;7429;52.498;13.480;2022-12-07T00:05:25;22.97;;;14.80;;
14681;SDS011;7429;52.498;13.480;2022-12-07T00:08:28;22.43;;;14.13;;
14681;SDS011;7429;52.498;13.480;2022-12-07T00:11:33;22.43;;;15.20;;
14681;SDS011;7429;52.498;13.480;2022-12-07T00:14:38;21.43;;;13.80;;
14681;SDS011;7429;52.498;13.480;2022-12-07T00:17:41;21.87;;;13.67;;
14681;SDS011;7429;52.498;13.480;2022-12-07T00:20:45;21.30;;;14.10;;
14681;SDS011;7429;52.498;13.480;2022-12-07T00:23:48;20.87;;;13.40;;
14681;SDS011;7429;52.498;13.480;2022-12-07T00:26:53;21.33;;;13.93;;
14681;SDS011;7429;52.498;13.480;2022-12-07T00:29:58;20.10;;;14.23;;
14681;SDS011;7429;52.498;13.480;2022-12-07T00:33:02;21.17;;;13.17;;
14681;SDS011;7429;52.498;13.480;2022-12-07T00:36:06;17.53;;;12.57;;
14681;SDS011;7429;52.498;13.480;2022-12-07T00:39:11;17.93;;;13.37;;
14681;SDS011;7429;52.498;13.480;2022-12-07T00:42:15;20.03;;;13.27;;
14681;SDS011;7429;52.498;13.480;2022-12-07T00:45:19;15.60;;;12.27;;
14681;SDS011;7429;52.498;13.480;2022-12-07T00:48:22;15.37;;;11.70;;
14681;SDS011;7429;52.498;13.480;2022-12-07T00:51:26;16.40;;;12.30;;
14681;SDS011;7429;52.498;13.480;2022-12-07T00:54:29;15.90;;;12.30;;
14681;SDS011;7429;52.498;13.480;2022-12-07T00:57:35;16.03;;;12.57;;
14681;SDS011;7429;52.498;13.480;2022-12-07T01:00:40;16.60;;;13.27;;
14681;SDS011;7429;52.498;13.480;2022-12-07T01:03:45;15.63;;;11.80;;
14681;SDS011;7429;52.498;13.480;2022-12-07T01:06:48;16.63;;;11.67;;
14681;SDS011;7429;52.498;13.480;2022-12-07T01:09:51;15.20;;;11.80;;
14681;SDS011;7429;52.498;13.480;2022-12-07T01:12:54;15.47;;;11.67;;
14681;SDS011;7429;52.498;13.480;2022-12-07T01:15:59;15.80;;;11.87;;
14681;SDS011;7429;52.498;13.480;2022-12-07T01:19:05;13.77;;;11.43;;
14681;SDS011;7429;52.498;13.480;2022-12-07T01:22:08;16.77;;;12.50;;
14681;SDS011;7429;52.498;13.480;2022-12-07T01:25:11;13.60;;;11.67;;
14681;SDS011;7429;52.498;13.480;2022-12-07T01:28:14;16.10;;;11.90;;
14681;SDS011;7429;52.498;13.480;2022-12-07T01:31:20;14.27;;;11.03;;
14681;SDS011;7429;52.498;13.480;2022-12-07T01:34:25;15.13;;;12.13;;
14681;SDS011;7429;52.498;13.480;2022-12-07T01:37:28;15.17;;;11.40;;
14681;SDS011;7429;52.498;13.480;2022-12-07T01:40:37;15.17;;;11.57;;
14681;SDS011;7429;52.498;13.480;2022-12-07T01:47:24;14.63;;;12.00;;
14681;SDS011;7429;52.498;13.480;2022-12-07T01:50:27;14.40;;;11.33;;
14681;SDS011;7429;52.498;13.480;2022-12-07T01:53:33;14.03;;;10.53;;
14681;SDS011;7429;52.498;13.480;2022-12-07T01:56:38;12.13;;;9.83;;
14681;SDS011;7429;52.498;13.480;2022-12-07T01:59:45;10.60;;;9.10;;
14681;SDS011;7429;52.498;13.480;2022-12-07T02:02:53;11.37;;;9.13;;
14681;SDS011;7429;52.498;13.480;2022-12-07T02:06:00;12.17;;;9.50;;
14681;SDS011;7429;52.498;13.480;2022-12-07T02:09:03;10.47;;;8.60;;
14681;SDS011;7429;52.498;13.480;2022-12-07T02:12:07;9.50;;;8.13;;
14681;SDS011;7429;52.498;13.480;2022-12-07T02:15:11;10.37;;;8.50;;
14681;SDS011;7429;52.498;13.480;2022-12-07T02:18:17;11.57;;;8.63;;
14681;SDS011;7429;52.498;13.480;2022-12-07T02:21:30;11.80;;;8.03;;
14681;SDS011;7429;52.498;13.480;2022-12-07T02:24:45;10.70;;;8.47;;
14681;SDS011;7429;52.498;13.480;2022-12-07T02:27:58;10.73;;;8.57;;
14681;SDS011;7429;52.498;13.480;2022-12-07T02:31:11;9.07;;;8.17;;
14681;SDS011;7429;52.498;13.480;2022-12-07T02:34:22;10.33;;;9.10;;
14681;SDS011;7429;52.498;13.480;2022-12-07T02:37:38;9.67;;;8.37;;
14681;SDS011;7429;52.498;13.480;2022-12-07T02:40:46;9.77;;;8.50;;
14681;SDS011;7429;52.498;13.480;2022-12-07T02:43:58;9.37;;;8.37;;
14681;SDS011;7429;52.498;13.480;2022-12-07T02:47:07;11.37;;;9.27;;
14681;SDS011;7429;52.498;13.480;2022-12-07T02:50:13;12.13;;;9.03;;
14681;SDS011;7429;52.498;13.480;2022-12-07T02:56:39;9.93;;;8.80;;
14681;SDS011;7429;52.498;13.480;2022-12-07T02:59:55;10.70;;;9.23;;
14681;SDS011;7429;52.498;13.480;2022-12-07T03:03:09;10.53;;;9.43;;
14681;SDS011;7429;52.498;13.480;2022-12-07T03:06:20;11.27;;;9.37;;
14681;SDS011;7429;52.498;13.480;2022-12-07T03:09:31;10.50;;;9.40;;
14681;SDS011;7429;52.498;13.480;2022-12-07T03:12:42;12.07;;;9.77;;
14681;SDS011;7429;52.498;13.480;2022-12-07T03:15:53;11.73;;;10.00;;
14681;SDS011;7429;52.498;13.480;2022-12-07T03:19:05;10.20;;;8.90;;
14681;SDS011;7429;52.498;13.480;2022-12-07T03:22:12;12.60;;;9.60;;
14681;SDS011;7429;52.498;13.480;2022-12-07T03:25:19;11.27;;;9.87;;
14681;SDS011;7429;52.498;13.480;2022-12-07T03:28:23;11.83;;;9.67;;
14681;SDS011;7429;52.498;13.480;2022-12-07T03:31:30;11.87;;;9.87;;
14681;SDS011;7429;52.498;13.480;2022-12-07T03:34:39;10.97;;;9.43;;
14681;SDS011;7429;52.498;13.480;2022-12-07T03:37:49;11.53;;;10.07;;
14681;SDS011;7429;52.498;13.480;2022-12-07T03:40:58;12.40;;;9.97;;
14681;SDS011;7429;52.498;13.480;2022-12-07T03:44:07;12.07;;;10.83;;
14681;SDS011;7429;52.498;13.480;2022-12-07T03:47:11;11.73;;;9.80;;
14681;SDS011;7429;52.498;13.480;2022-12-07T03:50:21;12.07;;;10.77;;
14681;SDS011;7429;52.498;13.480;2022-12-07T03:53:33;13.13;;;10.70;;
14681;SDS011;7429;52.498;13.480;2022-12-07T03:56:39;13.77;;;11.00;;
14681;SDS011;7429;52.498;13.480;2022-12-07T03:59:44;12.77;;;10.63;;
14681;SDS011;7429;52.498;13.480;2022-12-07T04:02:50;14.43;;;11.33;;
14681;SDS011;7429;52.498;13.480;2022-12-07T04:05:56;17.00;;;12.20;;
14681;SDS011;7429;52.498;13.480;2022-12-07T04:09:00;14.33;;;12.07;;
14681;SDS011;7429;52.498;13.480;2022-12-07T04:12:03;18.07;;;11.73;;
14681;SDS011;7429;52.498;13.480;2022-12-07T04:15:08;14.87;;;12.57;;
14681;SDS011;7429;52.498;13.480;2022-12-07T04:18:12;17.70;;;13.23;;
14681;SDS011;7429;52.498;13.480;2022-12-07T04:21:16;19.83;;;14.30;;
14681;SDS011;7429;52.498;13.480;2022-12-07T04:24:21;19.50;;;13.20;;
14681;SDS011;7429;52.498;13.480;2022-12-07T04:27:25;21.50;;;15.23;;
14681;SDS011;7429;52.498;13.480;2022-12-07T04:30:28;22.57;;;15.47;;
14681;SDS011;7429;52.498;13.480;2022-12-07T04:33:31;23.57;;;15.47;;
14681;SDS011;7429;52.498;13.480;2022-12-07T04:36:36;22.03;;;15.10;;
14681;SDS011;7429;52.498;13.480;2022-12-07T04:39:39;22.60;;;15.17;;
14681;SDS011;7429;52.498;13.480;2022-12-07T04:42:44;24.37;;;16.60;;
14681;SDS011;7429;52.498;13.480;2022-12-07T04:45:47;30.00;;;17.30;;
14681;SDS011;7429;52.498;13.480;2022-12-07T04:48:52;26.47;;;16.37;;
14681;SDS011;7429;52.498;13.480;2022-12-07T04:51:57;24.60;;;15.50;;
14681;SDS011;7429;52.498;13.480;2022-12-07T04:55:00;25.87;;;17.10;;
14681;SDS011;7429;52.498;13.480;2022-12-07T04:58:03;30.13;;;18.20;;
14681;SDS011;7429;52.498;13.480;2022-12-07T05:01:07;30.70;;;19.60;;
14681;SDS011;7429;52.498;13.480;2022-12-07T05:04:10;28.80;;;17.90;;
14681;SDS011;7429;52.498;13.480;2022-12-07T05:07:16;34.03;;;20.60;;
14681;SDS011;7429;52.498;13.480;2022-12-07T05:10:21;33.37;;;19.77;;
14681;SDS011;7429;52.498;13.480;2022-12-07T05:13:27;31.77;;;19.63;;
14681;SDS011;7429;52.498;13.480;2022-12-07T05:16:30;27.03;;;18.47;;
14681;SDS011;7429;52.498;13.480;2022-12-07T05:19:33;31.87;;;19.37;;
14681;SDS011;7429;52.498;13.480;2022-12-07T05:22:41;32.33;;;20.47;;
14681;SDS011;7429;52.498;13.480;2022-12-07T05:25:44;34.60;;;18.23;;
14681;SDS011;7429;52.498;13.480;2022-12-07T05:28:49;33.53;;;19.93;;
14681;SDS011;7429;52.498;13.480;2022-12-07T05:31:53;32.37;;;19.53;;
14681;SDS011;7429;52.498;13.480;2022-12-07T05:34:56;36.63;;;21.27;;
14681;SDS011;7429;52.498;13.480;2022-12-07T05:38:00;32.87;;;20.03;;
14681;SDS011;7429;52.498;13.480;2022-12-07T05:41:04;36.00;;;20.17;;
14681;SDS011;7429;52.498;13.480;2022-12-07T05:44:09;35.03;;;20.03;;
14681;SDS011;7429;52.498;13.480;2022-12-07T05:47:14;35.07;;;21.57;;
14681;SDS011;7429;52.498;13.480;2022-12-07T05:50:18;36.70;;;22.00;;
14681;SDS011;7429;52.498;13.480;2022-12-07T05:53:35;38.80;;;20.90;;
14681;SDS011;7429;52.498;13.480;2022-12-07T05:56:38;37.47;;;24.03;;
14681;SDS011;7429;52.498;13.480;2022-12-07T05:59:41;41.93;;;22.90;;
14681;SDS011;7429;52.498;13.480;2022-12-07T06:02:45;38.70;;;22.57;;
14681;SDS011;7429;52.498;13.480;2022-12-07T06:05:48;38.70;;;23.43;;
14681;SDS011;7429;52.498;13.480;2022-12-07T06:08:53;40.87;;;23.47;;
14681;SDS011;7429;52.498;13.480;2022-12-07T06:11:58;44.20;;;25.27;;
14681;SDS011;7429;52.498;13.480;2022-12-07T06:15:19;37.97;;;22.93;;
14681;SDS011;7429;52.498;13.480;2022-12-07T06:18:27;40.30;;;22.53;;
14681;SDS011;7429;52.498;13.480;2022-12-07T06:21:39;44.80;;;24.17;;
14681;SDS011;7429;52.498;13.480;2022-12-07T06:24:46;42.90;;;23.10;;
14681;SDS011;7429;52.498;13.480;2022-12-07T06:27:49;46.13;;;24.50;;
14681;SDS011;7429;52.498;13.480;2022-12-07T06:30:56;40.43;;;23.47;;
14681;SDS011;7429;52.498;13.480;2022-12-07T06:34:00;42.67;;;23.67;;
14681;SDS011;7429;52.498;13.480;2022-12-07T06:37:05;44.37;;;24.00;;
14681;SDS011;7429;52.498;13.480;2022-12-07T06:40:10;38.40;;;22.27;;
14681;SDS011;7429;52.498;13.480;2022-12-07T06:43:14;41.90;;;22.90;;
14681;SDS011;7429;52.498;13.480;2022-12-07T06:46:17;39.63;;;23.43;;
14681;SDS011;7429;52.498;13.480;2022-12-07T06:49:21;37.73;;;22.00;;
14681;SDS011;7429;52.498;13.480;2022-12-07T06:52:24;38.60;;;22.57;;
14681;SDS011;7429;52.498;13.480;2022-12-07T06:55:28;40.63;;;22.47;;
14681;SDS011;7429;52.498;13.480;2022-12-07T06:58:31;42.57;;;23.27;;
14681;SDS011;7429;52.498;13.480;2022-12-07T07:01:36;39.17;;;23.30;;
14681;SDS011;7429;52.498;13.480;2022-12-07T07:04:39;40.70;;;21.90;;
14681;SDS011;7429;52.498;13.480;2022-12-07T07:07:42;38.20;;;22.63;;
14681;SDS011;7429;52.498;13.480;2022-12-07T07:11:06;40.90;;;22.47;;
14681;SDS011;7429;52.498;13.480;2022-12-07T07:14:11;43.07;;;24.57;;
14681;SDS011;7429;52.498;13.480;2022-12-07T07:17:17;41.67;;;24.40;;
14681;SDS011;7429;52.498;13.480;2022-12-07T07:20:23;46.43;;;25.73;;
14681;SDS011;7429;52.498;13.480;2022-12-07T07:23:26;42.77;;;25.07;;
14681;SDS011;7429;52.498;13.480;2022-12-07T07:26:30;44.87;;;25.53;;
14681;SDS011;7429;52.498;13.480;2022-12-07T07:29:34;45.43;;;26.87;;
14681;SDS011;7429;52.498;13.480;2022-12-07T07:32:39;43.07;;;24.43;;
14681;SDS011;7429;52.498;13.480;2022-12-07T07:35:43;45.73;;;26.30;;
14681;SDS011;7429;52.498;13.480;2022-12-07T07:38:46;37.60;;;24.30;;
14681;SDS011;7429;52.498;13.480;2022-12-07T07:41:50;38.70;;;23.40;;
14681;SDS011;7429;52.498;13.480;2022-12-07T07:44:59;37.17;;;23.10;;
14681;SDS011;7429;52.498;13.480;2022-12-07T07:48:02;38.47;;;20.17;;
14681;SDS011;7429;52.498;13.480;2022-12-07T07:54:34;32.70;;;18.23;;
14681;SDS011;7429;52.498;13.480;2022-12-07T07:57:40;24.33;;;16.87;;
14681;SDS011;7429;52.498;13.480;2022-12-07T08:00:47;27.63;;;17.97;;
14681;SDS011;7429;52.498;13.480;2022-12-07T08:03:50;26.20;;;17.77;;
14681;SDS011;7429;52.498;13.480;2022-12-07T08:06:53;24.43;;;15.67;;
14681;SDS011;7429;52.498;13.480;2022-12-07T08:09:56;24.53;;;16.17;;
14681;SDS011;7429;52.498;13.480;2022-12-07T08:13:03;27.73;;;16.17;;
14681;SDS011;7429;52.498;13.480;2022-12-07T08:16:17;21.57;;;15.77;;
14681;SDS011;7429;52.498;13.480;2022-12-07T08:19:23;24.77;;;17.07;;
14681;SDS011;7429;52.498;13.480;2022-12-07T08:22:27;20.07;;;15.37;;
14681;SDS011;7429;52.498;13.480;2022-12-07T08:25:30;19.10;;;14.47;;
14681;SDS011;7429;52.498;13.480;2022-12-07T08:28:36;20.17;;;13.53;;
14681;SDS011;7429;52.498;13.480;2022-12-07T08:31:39;17.07;;;12.43;;
14681;SDS011;7429;52.498;13.480;2022-12-07T08:34:42;17.27;;;11.97;;
14681;SDS011;7429;52.498;13.480;2022-12-07T08:37:45;21.27;;;12.90;;
14681;SDS011;7429;52.498;13.480;2022-12-07T08:40:53;14.90;;;11.07;;
14681;SDS011;7429;52.498;13.480;2022-12-07T08:43:58;16.53;;;10.63;;
14681;SDS011;7429;52.498;13.480;2022-12-07T08:47:04;11.40;;;9.83;;
14681;SDS011;7429;52.498;13.480;2022-12-07T08:50:09;12.23;;;9.63;;
14681;SDS011;7429;52.498;13.480;2022-12-07T08:53:13;13.63;;;10.73;;
14681;SDS011;7429;52.498;13.480;2022-12-07T08:56:17;9.80;;;8.10;;
14681;SDS011;7429;52.498;13.480;2022-12-07T08:59:24;9.37;;;7.63;;
14681;SDS011;7429;52.498;13.480;2022-12-07T09:02:28;7.97;;;7.17;;
14681;SDS011;7429;52.498;13.480;2022-12-07T09:05:34;8.00;;;6.77;;
14681;SDS011;7429;52.498;13.480;2022-12-07T09:08:40;8.37;;;7.67;;
14681;SDS011;7429;52.498;13.480;2022-12-07T09:11:52;9.30;;;6.43;;
14681;SDS011;7429;52.498;13.480;2022-12-07T09:14:56;6.97;;;6.57;;
14681;SDS011;7429;52.498;13.480;2022-12-07T09:17:59;7.37;;;6.70;;
14681;SDS011;7429;52.498;13.480;2022-12-07T09:21:03;6.80;;;6.07;;
14681;SDS011;7429;52.498;13.480;2022-12-07T09:24:06;5.60;;;5.00;;
14681;SDS011;7429;52.498;13.480;2022-12-07T09:27:10;5.50;;;5.10;;
14681;SDS011;7429;52.498;13.480;2022-12-07T09:30:14;5.00;;;4.60;;
14681;SDS011;7429;52.498;13.480;2022-12-07T09:33:20;5.23;;;4.73;;
14681;SDS011;7429;52.498;13.480;2022-12-07T09:36:24;7.20;;;6.00;;
14681;SDS011;7429;52.498;13.480;2022-12-07T09:39:27;7.30;;;6.90;;
14681;SDS011;7429;52.498;13.480;2022-12-07T09:42:32;6.77;;;6.17;;
14681;SDS011;7429;52.498;13.480;2022-12-07T09:45:42;7.17;;;6.57;;
14681;SDS011;7429;52.498;13.480;2022-12-07T09:48:49;6.50;;;6.00;;
14681;SDS011;7429;52.498;13.480;2022-12-07T09:52:00;7.10;;;6.60;;
14681;SDS011;7429;52.498;13.480;2022-12-07T09:55:19;7.90;;;6.77;;
14681;SDS011;7429;52.498;13.480;2022-12-07T09:58:28;6.47;;;5.93;;
14681;SDS011;7429;52.498;13.480;2022-12-07T10:01:33;6.10;;;5.70;;
14681;SDS011;7429;52.498;13.480;2022-12-07T10:04:40;6.73;;;6.27;;
14681;SDS011;7429;52.498;13.480;2022-12-07T10:07:45;6.43;;;5.93;;
14681;SDS011;7429;52.498;13.480;2022-12-07T10:10:49;8.90;;;8.10;;
14681;SDS011;7429;52.498;13.480;2022-12-07T10:13:55;7.73;;;7.13;;
14681;SDS011;7429;52.498;13.480;2022-12-07T10:17:28;6.57;;;6.10;;
14681;SDS011;7429;52.498;13.480;2022-12-07T10:20:35;8.43;;;7.93;;
14681;SDS011;7429;52.498;13.480;2022-12-07T10:23:42;7.47;;;7.07;;
14681;SDS011;7429;52.498;13.480;2022-12-07T10:27:01;6.90;;;6.50;;
14681;SDS011;7429;52.498;13.480;2022-12-07T10:30:07;8.00;;;6.70;;
14681;SDS011;7429;52.498;13.480;2022-12-07T10:33:31;7.83;;;7.30;;
14681;SDS011;7429;52.498;13.480;2022-12-07T10:36:40;6.03;;;5.53;;
14681;SDS011;7429;52.498;13.480;2022-12-07T10:39:44;6.57;;;6.03;;
14681;SDS011;7429;52.498;13.480;2022-12-07T10:42:49;6.77;;;6.17;;
14681;SDS011;7429;52.498;13.480;2022-12-07T10:46:09;8.37;;;7.57;;
14681;SDS011;7429;52.498;13.480;2022-12-07T10:50:05;8.57;;;8.07;;
14681;SDS011;7429;52.498;13.480;2022-12-07T10:53:33;8.07;;;7.27;;
14681;SDS011;7429;52.498;13.480;2022-12-07T10:57:07;9.97;;;8.97;;
14681;SDS011;7429;52.498;13.480;2022-12-07T11:00:28;10.97;;;10.17;;
14681;SDS011;7429;52.498;13.480;2022-12-07T11:03:41;6.40;;;5.80;;
14681;SDS011;7429;52.498;13.480;2022-12-07T11:07:06;7.77;;;7.07;;
14681;SDS011;7429;52.498;13.480;2022-12-07T11:14:35;9.10;;;7.37;;
14681;SDS011;7429;52.498;13.480;2022-12-07T11:17:51;7.70;;;7.10;;
14681;SDS011;7429;52.498;13.480;2022-12-07T11:21:05;10.17;;;8.47;;
14681;SDS011;7429;52.498;13.480;2022-12-07T11:24:17;8.20;;;7.43;;
14681;SDS011;7429;52.498;13.480;2022-12-07T11:27:27;8.27;;;6.80;;
14681;SDS011;7429;52.498;13.480;2022-12-07T11:30:41;9.77;;;8.97;;
14681;SDS011;7429;52.498;13.480;2022-12-07T11:33:52;8.27;;;7.57;;
14681;SDS011;7429;52.498;13.480;2022-12-07T11:37:01;10.50;;;9.63;;
14681;SDS011;7429;52.498;13.480;2022-12-07T11:40:17;9.87;;;8.90;;
14681;SDS011;7429;52.498;13.480;2022-12-07T11:43:30;7.67;;;7.00;;
14681;SDS011;7429;52.498;13.480;2022-12-07T11:46:46;8.03;;;7.33;;
14681;SDS011;7429;52.498;13.480;2022-12-07T11:49:56;9.67;;;8.73;;
14681;SDS011;7429;52.498;13.480;2022-12-07T11:53:19;9.37;;;8.47;;
14681;SDS011;7429;52.498;13.480;2022-12-07T11:56:29;11.40;;;9.43;;
14681;SDS011;7429;52.498;13.480;2022-12-07T11:59:43;11.30;;;9.87;;
14681;SDS011;7429;52.498;13.480;2022-12-07T12:02:54;10.73;;;8.47;;
14681;SDS011;7429;52.498;13.480;2022-12-07T12:06:04;10.60;;;9.67;;
14681;SDS011;7429;52.498;13.480;2022-12-07T12:09:11;7.77;;;7.07;;
14681;SDS011;7429;52.498;13.480;2022-12-07T12:12:48;10.60;;;8.03;;
14681;SDS011;7429;52.498;13.480;2022-12-07T12:20:16;10.27;;;8.43;;
14681;SDS011;7429;52.498;13.480;2022-12-07T12:23:34;12.00;;;8.33;;
14681;SDS011;7429;52.498;13.480;2022-12-07T12:26:49;10.23;;;7.43;;
14681;SDS011;7429;52.498;13.480;2022-12-07T12:33:42;7.93;;;7.13;;
14681;SDS011;7429;52.498;13.480;2022-12-07T12:50:18;8.60;;;5.97;;
14681;SDS011;7429;52.498;13.480;2022-12-07T12:53:56;7.40;;;4.93;;
14681;SDS011;7429;52.498;13.480;2022-12-07T12:57:21;7.00;;;5.73;;
14681;SDS011;7429;52.498;13.480;2022-12-07T13:04:56;7.37;;;6.57;;
14681;SDS011;7429;52.498;13.480;2022-12-07T13:08:26;6.60;;;5.87;;
14681;SDS011;7429;52.498;13.480;2022-12-07T13:11:54;8.50;;;7.73;;
14681;SDS011;7429;52.498;13.480;2022-12-07T13:15:56;13.57;;;6.80;;
14681;SDS011;7429;52.498;13.480;2022-12-07T13:20:51;8.60;;;5.47;;
14681;SDS011;7429;52.498;13.480;2022-12-07T13:25:29;5.83;;;5.10;;
14681;SDS011;7429;52.498;13.480;2022-12-07T13:29:09;9.93;;;5.50;;
14681;SDS011;7429;52.498;13.480;2022-12-07T13:32:57;15.03;;;5.90;;
14681;SDS011;7429;52.498;13.480;2022-12-07T13:40:41;7.87;;;5.87;;
14681;SDS011;7429;52.498;13.480;2022-12-07T13:43:54;6.43;;;5.77;;
14681;SDS011;7429;52.498;13.480;2022-12-07T13:47:05;10.87;;;7.30;;
14681;SDS011;7429;52.498;13.480;2022-12-07T13:50:22;7.87;;;6.87;;
14681;SDS011;7429;52.498;13.480;2022-12-07T13:53:48;10.50;;;5.80;;
14681;SDS011;7429;52.498;13.480;2022-12-07T13:56:55;8.20;;;4.93;;
14681;SDS011;7429;52.498;13.480;2022-12-07T14:03:53;8.20;;;5.80;;
14681;SDS011;7429;52.498;13.480;2022-12-07T14:07:24;8.90;;;4.50;;
14681;SDS011;7429;52.498;13.480;2022-12-07T14:10:33;8.57;;;4.87;;
14681;SDS011;7429;52.498;13.480;2022-12-07T14:13:44;7.47;;;4.93;;
14681;SDS011;7429;52.498;13.480;2022-12-07T14:17:11;17.53;;;5.30;;
14681;SDS011;7429;52.498;13.480;2022-12-07T14:20:29;8.30;;;5.07;;
14681;SDS011;7429;52.498;13.480;2022-12-07T14:23:37;6.80;;;4.77;;
14681;SDS011;7429;52.498;13.480;2022-12-07T14:35:28;10.43;;;5.17;;
14681;SDS011;7429;52.498;13.480;2022-12-07T14:40:13;10.17;;;5.77;;
14681;SDS011;7429;52.498;13.480;2022-12-07T14:49:39;8.60;;;7.57;;
14681;SDS011;7429;52.498;13.480;2022-12-07T14:53:44;14.70;;;5.97;;
14681;SDS011;7429;52.498;13.480;2022-12-07T14:57:30;8.70;;;5.63;;
14681;SDS011;7429;52.498;13.480;2022-12-07T15:01:17;11.33;;;5.93;;
14681;SDS011;7429;52.498;13.480;2022-12-07T15:05:04;7.77;;;5.80;;
14681;SDS011;7429;52.498;13.480;2022-12-07T15:08:47;7.93;;;5.33;;
14681;SDS011;7429;52.498;13.480;2022-12-07T15:12:03;8.70;;;4.97;;
14681;SDS011;7429;52.498;13.480;2022-12-07T15:15:09;9.13;;;5.93;;
14681;SDS011;7429;52.498;13.480;2022-12-07T15:26:32;5.97;;;5.30;;
14681;SDS011;7429;52.498;13.480;2022-12-07T15:30:34;7.73;;;5.37;;
14681;SDS011;7429;52.498;13.480;2022-12-07T15:33:59;9.70;;;5.10;;
14681;SDS011;7429;52.498;13.480;2022-12-07T15:37:52;9.00;;;5.37;;
14681;SDS011;7429;52.498;13.480;2022-12-07T15:42:03;7.90;;;5.87;;
14681;SDS011;7429;52.498;13.480;2022-12-07T15:45:44;9.87;;;5.17;;
14681;SDS011;7429;52.498;13.480;2022-12-07T15:49:33;7.70;;;5.27;;
14681;SDS011;7429;52.498;13.480;2022-12-07T15:53:38;12.03;;;5.70;;
14681;SDS011;7429;52.498;13.480;2022-12-07T16:02:23;12.27;;;5.40;;
14681;SDS011;7429;52.498;13.480;2022-12-07T16:05:55;9.13;;;5.23;;
14681;SDS011;7429;52.498;13.480;2022-12-07T16:09:20;10.47;;;5.60;;
14681;SDS011;7429;52.498;13.480;2022-12-07T16:16:47;11.07;;;5.90;;
14681;SDS011;7429;52.498;13.480;2022-12-07T16:20:36;7.57;;;5.93;;
14681;SDS011;7429;52.498;13.480;2022-12-07T16:24:57;11.37;;;6.53;;
14681;SDS011;7429;52.498;13.480;2022-12-07T16:28:08;12.43;;;5.60;;
14681;SDS011;7429;52.498;13.480;2022-12-07T16:32:38;5.30;;;4.80;;
14681;SDS011;7429;52.498;13.480;2022-12-07T16:36:41;14.07;;;5.60;;
14681;SDS011;7429;52.498;13.480;2022-12-07T16:40:07;8.43;;;6.30;;
14681;SDS011;7429;52.498;13.480;2022-12-07T16:43:11;9.40;;;5.83;;
14681;SDS011;7429;52.498;13.480;2022-12-07T16:46:16;8.17;;;5.60;;
14681;SDS011;7429;52.498;13.480;2022-12-07T16:49:19;13.67;;;7.50;;
14681;SDS011;7429;52.498;13.480;2022-12-07T16:52:22;9.27;;;6.73;;
14681;SDS011;7429;52.498;13.480;2022-12-07T16:55:27;8.30;;;5.03;;
14681;SDS011;7429;52.498;13.480;2022-12-07T16:58:30;7.77;;;6.27;;
14681;SDS011;7429;52.498;13.480;2022-12-07T17:01:34;11.43;;;6.40;;
14681;SDS011;7429;52.498;13.480;2022-12-07T17:04:37;8.00;;;6.13;;
14681;SDS011;7429;52.498;13.480;2022-12-07T17:07:43;8.77;;;5.57;;
14681;SDS011;7429;52.498;13.480;2022-12-07T17:10:47;15.93;;;7.47;;
14681;SDS011;7429;52.498;13.480;2022-12-07T17:13:51;11.90;;;6.27;;
14681;SDS011;7429;52.498;13.480;2022-12-07T17:17:12;8.50;;;6.50;;
14681;SDS011;7429;52.498;13.480;2022-12-07T17:20:15;11.37;;;6.10;;
14681;SDS011;7429;52.498;13.480;2022-12-07T17:23:19;8.37;;;5.60;;
14681;SDS011;7429;52.498;13.480;2022-12-07T17:26:24;12.63;;;6.50;;
14681;SDS011;7429;52.498;13.480;2022-12-07T17:29:36;9.03;;;6.60;;
14681;SDS011;7429;52.498;13.480;2022-12-07T17:32:39;9.63;;;5.97;;
14681;SDS011;7429;52.498;13.480;2022-12-07T17:35:42;13.97;;;6.67;;
14681;SDS011;7429;52.498;13.480;2022-12-07T17:38:45;7.87;;;6.77;;
14681;SDS011;7429;52.498;13.480;2022-12-07T17:41:53;9.57;;;7.00;;
14681;SDS011;7429;52.498;13.480;2022-12-07T17:45:14;9.50;;;6.70;;
14681;SDS011;7429;52.498;13.480;2022-12-07T17:48:17;9.80;;;7.00;;
14681;SDS011;7429;52.498;13.480;2022-12-07T17:51:21;10.67;;;6.23;;
14681;SDS011;7429;52.498;13.480;2022-12-07T17:54:41;13.20;;;7.33;;
14681;SDS011;7429;52.498;13.480;2022-12-07T17:57:46;14.77;;;7.73;;
14681;SDS011;7429;52.498;13.480;2022-12-07T18:00:49;12.37;;;7.53;;
14681;SDS011;7429;52.498;13.480;2022-12-07T18:03:52;8.07;;;6.27;;
14681;SDS011;7429;52.498;13.480;2022-12-07T18:06:55;8.60;;;6.20;;
14681;SDS011;7429;52.498;13.480;2022-12-07T18:09:58;11.43;;;6.53;;
14681;SDS011;7429;52.498;13.480;2022-12-07T18:13:03;7.27;;;6.40;;
14681;SDS011;7429;52.498;13.480;2022-12-07T18:16:28;9.43;;;6.27;;
14681;SDS011;7429;52.498;13.480;2022-12-07T18:19:33;7.17;;;6.00;;
14681;SDS011;7429;52.498;13.480;2022-12-07T18:22:37;8.53;;;7.50;;
14681;SDS011;7429;52.498;13.480;2022-12-07T18:25:44;10.33;;;6.70;;
14681;SDS011;7429;52.498;13.480;2022-12-07T18:28:50;10.80;;;7.10;;
14681;SDS011;7429;52.498;13.480;2022-12-07T18:31:54;13.90;;;7.70;;
14681;SDS011;7429;52.498;13.480;2022-12-07T18:34:57;7.50;;;5.87;;
14681;SDS011;7429;52.498;13.480;2022-12-07T18:38:04;10.73;;;6.73;;
14681;SDS011;7429;52.498;13.480;2022-12-07T18:41:10;15.87;;;7.37;;
14681;SDS011;7429;52.498;13.480;2022-12-07T18:44:17;11.77;;;7.37;;
14681;SDS011;7429;52.498;13.480;2022-12-07T18:47:20;13.60;;;7.77;;
14681;SDS011;7429;52.498;13.480;2022-12-07T18:50:23;14.73;;;7.13;;
14681;SDS011;7429;52.498;13.480;2022-12-07T18:53:26;11.73;;;7.23;;
14681;SDS011;7429;52.498;13.480;2022-12-07T18:56:32;8.63;;;7.00;;
14681;SDS011;7429;52.498;13.480;2022-12-07T18:59:38;10.47;;;7.27;;
14681;SDS011;7429;52.498;13.480;2022-12-07T19:02:47;13.17;;;7.43;;
14681;SDS011;7429;52.498;13.480;2022-12-07T19:05:51;10.53;;;6.57;;
14681;SDS011;7429;52.498;13.480;2022-12-07T19:08:56;11.60;;;7.40;;
14681;SDS011;7429;52.498;13.480;2022-12-07T19:11:59;18.40;;;7.67;;
14681;SDS011;7429;52.498;13.480;2022-12-07T19:15:07;12.13;;;7.03;;
14681;SDS011;7429;52.498;13.480;2022-12-07T19:18:13;7.07;;;6.33;;
14681;SDS011;7429;52.498;13.480;2022-12-07T19:21:16;12.43;;;6.70;;
14681;SDS011;7429;52.498;13.480;2022-12-07T19:24:19;9.23;;;7.20;;
14681;SDS011;7429;52.498;13.480;2022-12-07T19:27:24;10.27;;;6.63;;
14681;SDS011;7429;52.498;13.480;2022-12-07T19:30:29;14.77;;;6.70;;
14681;SDS011;7429;52.498;13.480;2022-12-07T19:33:32;9.73;;;6.67;;
14681;SDS011;7429;52.498;13.480;2022-12-07T19:36:35;12.50;;;7.90;;
14681;SDS011;7429;52.498;13.480;2022-12-07T19:39:39;13.37;;;7.20;;
14681;SDS011;7429;52.498;13.480;2022-12-07T19:42:43;9.17;;;7.13;;
14681;SDS011;7429;52.498;13.480;2022-12-07T19:45:48;10.93;;;8.47;;
14681;SDS011;7429;52.498;13.480;2022-12-07T19:48:51;11.77;;;7.47;;
14681;SDS011;7429;52.498;13.480;2022-12-07T19:51:54;11.30;;;8.03;;
14681;SDS011;7429;52.498;13.480;2022-12-07T19:54:58;11.20;;;6.77;;
14681;SDS011;7429;52.498;13.480;2022-12-07T19:58:03;10.20;;;7.10;;
14681;SDS011;7429;52.498;13.480;2022-12-07T20:01:07;10.70;;;7.40;;
14681;SDS011;7429;52.498;13.480;2022-12-07T20:04:11;10.33;;;7.73;;
14681;SDS011;7429;52.498;13.480;2022-12-07T20:07:17;17.07;;;8.93;;
14681;SDS011;7429;52.498;13.480;2022-12-07T20:10:20;14.13;;;7.43;;
14681;SDS011;7429;52.498;13.480;2022-12-07T20:13:26;9.83;;;8.57;;
14681;SDS011;7429;52.498;13.480;2022-12-07T20:16:30;10.83;;;8.37;;